Time;durP1;ratioP1;P1;durP2;ratioP2;P2;SDS_P1;SDS_P2;PMS_P1;PMS_P2;Temp;Humidity;BMP_temperature;BMP_pressure;BME280_temperature;BME280_humidity;BME280_pressure;Samples;Min_cycle;Max_cycle;Signal;HPM_P1;HPM_P2
2020/12/26 00:02:26;;;;;;;1.30;1.30;;;0.00;98.00;;;;;;4991820;28;20466;-66
2020/12/26 00:04:52;;;;;;;1.70;1.33;;;0.10;98.00;;;;;;4989326;28;20492;-67
2020/12/26 00:07:20;;;;;;;1.30;1.20;;;0.30;98.00;;;;;;4991759;28;20868;-65
2020/12/26 00:09:47;;;;;;;1.20;1.00;;;0.20;98.00;;;;;;4989682;28;20498;-65
2020/12/26 00:12:13;;;;;;;1.20;1.10;;;0.20;98.00;;;;;;4991627;28;20460;-67
2020/12/26 00:14:40;;;;;;;2.23;1.60;;;0.40;98.00;;;;;;4988434;28;20481;-67
2020/12/26 00:17:08;;;;;;;1.40;1.20;;;0.50;98.00;;;;;;4991592;28;20470;-65
2020/12/26 00:19:34;;;;;;;4.60;1.47;;;0.30;98.00;;;;;;4988776;28;20815;-65
2020/12/26 00:22:01;;;;;;;1.20;1.03;;;0.40;98.00;;;;;;4991917;28;20984;-66
2020/12/26 00:24:28;;;;;;;3.67;1.90;;;0.50;98.00;;;;;;4989645;28;20474;-67
2020/12/26 00:26:58;;;;;;;1.20;1.10;;;0.30;98.00;;;;;;4991843;28;20462;-65
2020/12/26 00:29:25;;;;;;;1.20;1.03;;;0.40;98.00;;;;;;4990366;28;20550;-66
2020/12/26 00:31:52;;;;;;;1.47;1.40;;;0.30;98.00;;;;;;4995390;28;20449;-67
2020/12/26 00:34:19;;;;;;;1.33;1.20;;;0.40;98.00;;;;;;4992019;28;20466;-65
2020/12/26 00:36:45;;;;;;;1.10;1.00;;;0.10;98.00;;;;;;4995304;28;20541;-65
2020/12/26 00:39:12;;;;;;;1.20;1.13;;;-0.10;98.00;;;;;;4992774;28;20802;-65
2020/12/26 00:41:39;;;;;;;1.23;1.13;;;-0.20;98.00;;;;;;4995220;28;20477;-67
2020/12/26 00:44:06;;;;;;;1.45;1.42;;;-0.30;98.00;;;;;;4992944;28;20225;-66
2020/12/26 00:46:33;;;;;;;2.03;1.73;;;-0.40;98.00;;;;;;4995082;28;20209;-65
2020/12/26 00:48:59;;;;;;;1.10;1.10;;;-0.50;98.00;;;;;;4992596;28;20485;-65
2020/12/26 00:51:29;;;;;;;2.20;1.92;;;-0.60;98.00;;;;;;4994896;28;20233;-66
2020/12/26 00:53:56;;;;;;;1.35;1.27;;;-0.60;98.00;;;;;;4990426;28;20685;-66
2020/12/26 00:56:22;;;;;;;3.80;2.87;;;-0.50;98.00;;;;;;4994692;28;20257;-66
2020/12/26 00:58:50;;;;;;;1.97;1.47;;;-0.20;98.00;;;;;;4992679;28;20481;-65
2020/12/26 01:01:16;;;;;;;1.90;1.30;;;0.00;98.00;;;;;;4994557;28;20464;-67
2020/12/26 01:03:43;;;;;;;3.13;1.57;;;0.20;98.00;;;;;;4992493;28;20469;-66
2020/12/26 01:06:13;;;;;;;2.40;1.67;;;0.40;98.00;;;;;;4994558;28;20818;-67
2020/12/26 01:08:41;;;;;;;1.15;1.10;;;0.30;98.00;;;;;;4992331;28;21181;-67
2020/12/26 01:11:08;;;;;;;1.60;1.55;;;0.10;98.00;;;;;;4994320;28;20218;-68
2020/12/26 01:13:35;;;;;;;1.30;1.17;;;0.30;98.00;;;;;;4992508;28;20210;-67
2020/12/26 01:16:02;;;;;;;1.30;1.30;;;0.40;98.00;;;;;;4994299;28;20466;-66
2020/12/26 01:18:29;;;;;;;7.63;2.75;;;0.20;98.00;;;;;;4992365;28;20872;-67
2020/12/26 01:20:56;;;;;;;2.90;1.77;;;0.00;98.00;;;;;;4994187;28;20348;-65
2020/12/26 01:23:23;;;;;;;1.35;1.15;;;-0.30;98.00;;;;;;4992045;28;20556;-67
2020/12/26 01:25:49;;;;;;;1.63;1.38;;;-0.40;98.00;;;;;;4994201;28;20202;-66
2020/12/26 01:28:16;;;;;;;1.50;1.50;;;-0.50;98.00;;;;;;4991994;28;20335;-66
2020/12/26 01:30:42;;;;;;;1.20;1.10;;;-0.50;98.00;;;;;;4994276;28;20554;-67
2020/12/26 01:33:10;;;;;;;3.22;2.00;;;-0.40;98.00;;;;;;4990809;28;20249;-66
2020/12/26 01:35:36;;;;;;;2.72;1.63;;;-0.30;98.00;;;;;;4994249;28;20202;-66
2020/12/26 01:38:03;;;;;;;1.40;1.30;;;-0.40;98.00;;;;;;4993705;28;20261;-66
2020/12/26 01:40:29;;;;;;;1.10;1.00;;;-0.50;98.00;;;;;;4992839;28;20461;-66
2020/12/26 01:42:57;;;;;;;1.52;1.27;;;-0.60;98.00;;;;;;4993791;28;20221;-68
2020/12/26 01:45:24;;;;;;;1.48;1.25;;;-0.60;98.00;;;;;;4992000;28;20736;-66
2020/12/26 01:47:51;;;;;;;1.30;1.20;;;-0.40;98.00;;;;;;4993769;28;20240;-68
2020/12/26 01:50:19;;;;;;;1.10;1.00;;;-0.40;98.00;;;;;;4991676;28;20461;-67
2020/12/26 01:52:46;;;;;;;1.10;1.00;;;-0.60;98.00;;;;;;4993892;28;20464;-66
2020/12/26 01:55:14;;;;;;;2.42;1.23;;;-0.70;98.00;;;;;;4990195;28;20460;-67
2020/12/26 01:57:51;;;;;;;1.33;1.30;;;-0.70;98.00;;;;;;4993719;28;20209;-66
2020/12/26 02:00:19;;;;;;;3.58;2.35;;;-0.40;98.00;;;;;;4991377;28;20615;-67
2020/12/26 02:02:49;;;;;;;1.83;1.52;;;-0.30;98.00;;;;;;4993617;28;20632;-66
2020/12/26 02:05:16;;;;;;;1.95;1.58;;;-0.20;98.00;;;;;;4991166;28;20210;-66
2020/12/26 02:07:46;;;;;;;2.00;1.93;;;-0.10;98.00;;;;;;4993436;28;20263;-67
2020/12/26 02:10:14;;;;;;;1.25;1.23;;;-0.10;98.00;;;;;;4990005;28;20558;-68
2020/12/26 02:12:40;;;;;;;5.13;1.75;;;0.00;98.00;;;;;;4993405;28;20202;-66
2020/12/26 02:15:07;;;;;;;1.10;1.00;;;0.00;98.00;;;;;;4989342;28;20209;-67
2020/12/26 02:17:33;;;;;;;3.78;2.28;;;0.00;98.00;;;;;;4993194;28;20675;-66
2020/12/26 02:20:00;;;;;;;1.90;1.83;;;0.10;98.00;;;;;;4990883;28;20228;-67
2020/12/26 02:22:26;;;;;;;1.10;1.00;;;-0.10;98.00;;;;;;4993008;28;20210;-67
2020/12/26 02:24:54;;;;;;;1.23;1.20;;;-0.20;98.00;;;;;;4990983;28;20198;-66
2020/12/26 02:27:20;;;;;;;1.30;1.30;;;-0.30;98.00;;;;;;4992918;28;20209;-66
2020/12/26 02:29:47;;;;;;;1.40;1.30;;;-0.40;98.00;;;;;;4990934;28;20640;-68
2020/12/26 02:32:13;;;;;;;3.08;1.35;;;-0.50;98.00;;;;;;4992882;28;20272;-67
2020/12/26 02:34:39;;;;;;;1.10;1.00;;;-0.40;98.00;;;;;;4990943;28;20206;-66
2020/12/26 02:37:06;;;;;;;1.10;1.00;;;-0.30;98.00;;;;;;4993233;28;20259;-67
2020/12/26 02:39:33;;;;;;;2.13;1.70;;;-0.10;98.00;;;;;;4989546;28;20456;-66
2020/12/26 02:42:00;;;;;;;1.40;1.10;;;-0.10;98.00;;;;;;4993121;28;20454;-68
2020/12/26 02:44:27;;;;;;;1.25;1.17;;;0.10;98.00;;;;;;4990922;28;20476;-66
2020/12/26 02:46:53;;;;;;;1.10;1.10;;;0.20;98.00;;;;;;4992938;28;20198;-67
2020/12/26 02:49:20;;;;;;;1.40;1.20;;;0.10;98.00;;;;;;4990497;28;20335;-68
2020/12/26 02:51:46;;;;;;;1.10;1.00;;;0.10;98.00;;;;;;4991306;28;20233;-66
2020/12/26 02:54:13;;;;;;;1.10;1.05;;;0.10;98.00;;;;;;4990558;28;20680;-67
2020/12/26 02:56:40;;;;;;;1.65;1.30;;;0.00;98.00;;;;;;4992844;28;20237;-66
2020/12/26 02:59:08;;;;;;;1.20;1.10;;;0.10;98.00;;;;;;4990677;28;20203;-67
2020/12/26 03:01:38;;;;;;;1.30;1.20;;;-0.10;98.00;;;;;;4992526;28;20695;-67
2020/12/26 03:04:04;;;;;;;1.10;0.90;;;-0.10;98.00;;;;;;4990450;28;20470;-68
2020/12/26 03:06:31;;;;;;;1.20;1.10;;;0.00;98.00;;;;;;4992357;28;20501;-67
2020/12/26 03:08:57;;;;;;;5.50;3.58;;;0.10;98.00;;;;;;4990005;28;20230;-66
2020/12/26 03:11:24;;;;;;;1.30;1.10;;;0.40;98.00;;;;;;4991144;28;20206;-66
2020/12/26 03:13:50;;;;;;;1.20;1.00;;;0.40;98.00;;;;;;4990065;28;20466;-67
2020/12/26 03:16:19;;;;;;;1.55;1.42;;;0.20;98.00;;;;;;4992176;28;20264;-68
2020/12/26 03:18:47;;;;;;;1.20;1.10;;;0.20;98.00;;;;;;4990290;28;20745;-67
2020/12/26 03:21:14;;;;;;;3.50;1.73;;;0.00;98.00;;;;;;4992061;28;20463;-66
2020/12/26 03:23:41;;;;;;;1.40;1.30;;;-0.10;98.00;;;;;;4989873;28;20206;-66
2020/12/26 03:26:07;;;;;;;1.40;1.40;;;-0.10;98.00;;;;;;4992114;28;20470;-69
2020/12/26 03:28:34;;;;;;;1.58;1.48;;;0.00;98.00;;;;;;4989809;28;20228;-68
2020/12/26 03:31:00;;;;;;;2.37;1.60;;;0.00;98.00;;;;;;4991862;28;20209;-66
2020/12/26 03:33:30;;;;;;;1.10;1.00;;;-0.20;98.00;;;;;;4989988;28;20896;-69
2020/12/26 03:35:56;;;;;;;1.35;1.33;;;-0.20;98.00;;;;;;4992085;28;20553;-67
2020/12/26 03:38:23;;;;;;;1.10;1.00;;;-0.20;98.00;;;;;;4988644;28;20210;-67
2020/12/26 03:40:49;;;;;;;1.20;1.10;;;-0.10;98.00;;;;;;4991213;28;20555;-68
2020/12/26 03:43:16;;;;;;;1.10;1.00;;;-0.10;98.00;;;;;;4991168;28;20333;-67
2020/12/26 03:45:42;;;;;;;1.30;1.25;;;-0.10;98.00;;;;;;4991680;28;20297;-66
2020/12/26 03:48:09;;;;;;;1.67;1.58;;;-0.10;98.00;;;;;;4992054;28;20592;-67
2020/12/26 03:50:36;;;;;;;1.20;1.10;;;-0.10;98.00;;;;;;4990058;28;20285;-68
2020/12/26 03:53:03;;;;;;;1.10;0.90;;;-0.20;98.00;;;;;;4992085;28;20213;-66
2020/12/26 03:55:29;;;;;;;3.87;2.47;;;0.00;98.00;;;;;;4989736;28;20460;-68
2020/12/26 03:57:56;;;;;;;1.10;1.00;;;0.20;98.00;;;;;;4990510;28;20490;-66
2020/12/26 04:00:22;;;;;;;1.20;1.10;;;0.20;98.00;;;;;;4989771;28;20828;-66
2020/12/26 04:02:48;;;;;;;2.70;1.77;;;0.20;98.00;;;;;;4991923;28;20465;-67
2020/12/26 04:05:15;;;;;;;1.57;1.27;;;0.30;98.00;;;;;;4991988;28;20862;-66
2020/12/26 04:07:42;;;;;;;5.68;1.73;;;0.60;98.00;;;;;;4995686;28;20467;-68
2020/12/26 04:10:09;;;;;;;1.10;1.00;;;0.70;98.00;;;;;;4993359;28;20708;-67
2020/12/26 04:12:35;;;;;;;1.55;1.45;;;0.70;98.00;;;;;;4995677;28;20487;-67
2020/12/26 04:15:02;;;;;;;1.45;1.38;;;0.60;98.00;;;;;;4993559;28;20202;-66
2020/12/26 04:17:29;;;;;;;1.50;1.40;;;0.50;98.00;;;;;;4994275;28;20209;-66
2020/12/26 04:19:55;;;;;;;1.20;1.10;;;0.60;98.00;;;;;;4993359;28;20874;-66
2020/12/26 04:22:21;;;;;;;1.10;1.00;;;0.60;98.00;;;;;;4995195;28;20888;-67
2020/12/26 04:24:49;;;;;;;1.20;1.00;;;0.70;98.00;;;;;;4993419;28;20471;-67
2020/12/26 04:27:15;;;;;;;1.20;1.03;;;0.70;98.00;;;;;;4995444;28;20458;-66
2020/12/26 04:29:42;;;;;;;2.07;1.13;;;0.70;98.00;;;;;;4993090;28;20484;-67
2020/12/26 04:32:09;;;;;;;1.67;1.58;;;0.70;98.00;;;;;;4995224;28;20475;-66
2020/12/26 04:34:36;;;;;;;1.30;1.20;;;0.70;98.00;;;;;;4993035;28;20342;-65
2020/12/26 04:37:02;;;;;;;1.57;1.33;;;0.80;98.00;;;;;;4995213;28;20215;-67
2020/12/26 04:39:29;;;;;;;1.57;1.20;;;0.90;98.00;;;;;;4993071;28;20458;-68
2020/12/26 04:41:56;;;;;;;1.43;1.40;;;0.80;98.00;;;;;;4995103;28;20464;-66
2020/12/26 04:44:25;;;;;;;1.50;1.43;;;0.80;98.00;;;;;;4993084;28;20800;-67
2020/12/26 04:46:53;;;;;;;1.30;1.17;;;0.90;98.00;;;;;;4995256;28;20458;-66
2020/12/26 04:49:21;;;;;;;2.90;1.77;;;0.90;98.00;;;;;;4993141;28;20490;-66
2020/12/26 04:51:51;;;;;;;1.60;1.50;;;0.90;98.00;;;;;;4995039;28;20490;-69
2020/12/26 04:54:26;;;;;;;1.20;1.20;;;1.00;98.00;;;;;;4993066;28;21012;-66
2020/12/26 04:56:53;;;;;;;1.20;1.10;;;0.90;98.00;;;;;;4995007;28;21004;-69
2020/12/26 04:59:22;;;;;;;1.70;1.20;;;0.90;98.00;;;;;;4992604;28;20457;-66
2020/12/26 05:01:49;;;;;;;1.17;0.97;;;0.80;98.00;;;;;;4994797;28;20498;-67
2020/12/26 05:04:16;;;;;;;2.50;1.93;;;0.80;98.00;;;;;;4992661;28;20473;-66
2020/12/26 05:06:48;;;;;;;1.40;1.30;;;0.70;98.00;;;;;;4993356;28;20466;-66
2020/12/26 05:09:16;;;;;;;1.67;1.30;;;0.70;98.00;;;;;;4992504;28;20486;-66
2020/12/26 05:11:53;;;;;;;1.53;1.50;;;0.80;98.00;;;;;;4994576;28;20475;-67
2020/12/26 05:14:21;;;;;;;1.40;1.33;;;0.80;98.00;;;;;;4992568;28;20463;-67
2020/12/26 05:16:47;;;;;;;1.20;1.00;;;0.80;98.00;;;;;;4994203;28;20859;-69
2020/12/26 05:19:14;;;;;;;1.23;1.10;;;0.90;98.00;;;;;;4991887;28;20467;-66
2020/12/26 05:21:41;;;;;;;1.50;1.20;;;1.00;98.00;;;;;;4994080;28;20498;-67
2020/12/26 05:24:11;;;;;;;4.17;1.63;;;1.10;98.00;;;;;;4991317;28;20513;-66
2020/12/26 05:26:42;;;;;;;1.20;1.00;;;1.00;98.00;;;;;;4992755;28;20462;-66
2020/12/26 05:29:09;;;;;;;1.13;1.00;;;1.00;98.00;;;;;;4991481;28;20685;-66
2020/12/26 05:31:54;;;;;;;1.20;0.93;;;1.00;98.00;;;;;;4994061;28;20470;-66
2020/12/26 05:34:30;;;;;;;1.30;1.20;;;0.90;98.00;;;;;;4991815;28;20537;-67
2020/12/26 05:36:58;;;;;;;1.47;1.10;;;0.90;98.00;;;;;;4993769;28;20811;-66
2020/12/26 05:39:28;;;;;;;1.70;1.60;;;0.80;98.00;;;;;;4991882;28;20549;-66
2020/12/26 05:41:55;;;;;;;1.20;1.10;;;0.80;98.00;;;;;;4992991;28;20497;-66
2020/12/26 05:44:26;;;;;;;3.27;1.73;;;0.90;98.00;;;;;;4991428;28;20468;-66
2020/12/26 05:46:54;;;;;;;1.30;1.20;;;1.00;98.00;;;;;;4994212;28;20545;-67
2020/12/26 05:49:29;;;;;;;1.30;1.10;;;1.00;98.00;;;;;;4991867;28;20487;-66
2020/12/26 05:52:06;;;;;;;1.20;1.10;;;1.20;98.00;;;;;;4993929;28;20942;-67
2020/12/26 05:54:33;;;;;;;1.20;1.00;;;1.10;98.00;;;;;;4991273;28;20478;-67
2020/12/26 05:57:20;;;;;;;1.17;1.07;;;1.00;98.00;;;;;;4993842;28;20473;-66
2020/12/26 05:59:49;;;;;;;3.10;1.30;;;1.10;98.00;;;;;;4985525;28;20483;-66
2020/12/26 06:02:25;;;;;;;1.37;1.33;;;1.20;98.00;;;;;;4993617;28;21090;-67
2020/12/26 06:04:53;;;;;;;1.20;1.10;;;1.20;98.00;;;;;;4991152;28;20460;-66
2020/12/26 06:07:24;;;;;;;1.20;1.10;;;1.10;98.00;;;;;;4993643;28;20517;-66
2020/12/26 06:09:53;;;;;;;1.57;1.17;;;1.00;98.00;;;;;;4991283;28;20482;-66
2020/12/26 06:12:21;;;;;;;1.13;1.00;;;0.90;98.00;;;;;;4993254;28;20471;-65
2020/12/26 06:14:50;;;;;;;2.17;1.67;;;1.00;98.00;;;;;;4990957;28;20489;-66
2020/12/26 06:17:22;;;;;;;2.67;2.10;;;1.00;98.00;;;;;;4993290;28;20462;-66
2020/12/26 06:19:58;;;;;;;1.20;1.00;;;1.20;98.00;;;;;;4991090;28;20976;-67
2020/12/26 06:22:25;;;;;;;4.07;1.67;;;1.20;98.00;;;;;;4993102;28;20465;-66
2020/12/26 06:24:54;;;;;;;1.30;1.10;;;1.10;98.00;;;;;;4991027;28;20462;-67
2020/12/26 06:27:24;;;;;;;1.47;1.20;;;0.90;98.00;;;;;;4992347;28;20461;-66
2020/12/26 06:29:51;;;;;;;1.87;1.83;;;0.90;98.00;;;;;;4989493;28;20501;-67
2020/12/26 06:32:19;;;;;;;3.23;2.70;;;1.00;98.00;;;;;;4992969;28;20466;-68
2020/12/26 06:34:45;;;;;;;4.00;1.50;;;1.00;98.00;;;;;;4990736;28;20463;-66
2020/12/26 06:37:13;;;;;;;1.70;1.40;;;1.00;98.00;;;;;;4992983;28;20470;-68
2020/12/26 06:39:39;;;;;;;1.50;1.37;;;1.00;98.00;;;;;;4990917;28;20470;-66
2020/12/26 06:42:19;;;;;;;2.80;1.70;;;1.10;98.00;;;;;;4992790;28;20469;-68
2020/12/26 06:44:47;;;;;;;1.20;1.00;;;1.00;98.00;;;;;;4990579;28;20492;-66
2020/12/26 06:47:36;;;;;;;1.50;1.40;;;1.20;98.00;;;;;;4992650;28;20467;-66
2020/12/26 06:50:31;;;;;;;2.40;2.20;;;1.10;98.00;;;;;;4990583;28;20567;-66
2020/12/26 06:52:59;;;;;;;1.20;1.00;;;1.10;98.00;;;;;;4958328;28;20465;-66
2020/12/26 06:55:40;;;;;;;1.50;1.43;;;1.20;98.00;;;;;;4990614;28;20517;-66
2020/12/26 06:58:11;;;;;;;1.60;1.57;;;1.30;98.00;;;;;;4992843;28;20976;-68
2020/12/26 07:00:38;;;;;;;1.87;1.87;;;1.20;98.00;;;;;;4990380;28;20828;-68
2020/12/26 07:03:29;;;;;;;2.17;1.40;;;1.20;98.00;;;;;;4991409;28;20458;-66
2020/12/26 07:05:56;;;;;;;2.23;1.70;;;1.10;98.00;;;;;;4990347;28;20454;-66
2020/12/26 07:08:26;;;;;;;1.20;1.20;;;1.10;98.00;;;;;;4992472;28;20525;-67
2020/12/26 07:10:53;;;;;;;1.30;1.10;;;1.00;98.00;;;;;;4990207;28;20462;-65
2020/12/26 07:13:41;;;;;;;1.20;1.10;;;1.10;98.00;;;;;;4992293;28;21092;-66
2020/12/26 07:16:39;;;;;;;2.23;2.10;;;1.20;98.00;;;;;;4992268;28;20946;-67
2020/12/26 07:19:30;;;;;;;1.20;1.10;;;1.20;98.00;;;;;;4989012;28;20454;-67
2020/12/26 07:21:58;;;;;;;1.60;1.50;;;1.20;98.00;;;;;;4992241;28;20465;-66
2020/12/26 07:24:42;;;;;;;1.20;1.00;;;1.20;98.00;;;;;;4989874;28;20486;-67
2020/12/26 07:27:19;;;;;;;1.20;1.00;;;1.20;98.00;;;;;;4992255;28;20823;-67
2020/12/26 07:30:02;;;;;;;5.47;3.53;;;1.00;98.00;;;;;;4989681;28;20482;-66
2020/12/26 07:32:43;;;;;;;1.20;1.03;;;0.90;98.00;;;;;;4990872;28;20967;-66
2020/12/26 07:35:17;;;;;;;1.20;1.10;;;0.80;98.00;;;;;;4989856;28;20465;-66
2020/12/26 07:37:45;;;;;;;1.23;1.10;;;0.80;98.00;;;;;;4991929;28;20469;-67
2020/12/26 07:40:18;;;;;;;1.73;1.20;;;1.00;98.00;;;;;;4988638;28;20934;-67
2020/12/26 07:42:45;;;;;;;1.20;1.07;;;1.10;98.00;;;;;;4991875;28;20497;-66
2020/12/26 07:45:14;;;;;;;1.37;1.27;;;1.30;98.00;;;;;;4989952;28;21098;-67
2020/12/26 07:47:44;;;;;;;1.20;1.00;;;1.40;98.00;;;;;;4991919;28;20461;-66
2020/12/26 07:50:12;;;;;;;1.77;1.20;;;1.60;98.00;;;;;;4989609;28;20491;-67
2020/12/26 07:52:38;;;;;;;1.10;0.90;;;1.60;98.00;;;;;;4992153;28;20459;-66
2020/12/26 07:55:08;;;;;;;1.20;1.10;;;1.60;98.00;;;;;;4989828;28;20462;-65
2020/12/26 07:57:36;;;;;;;3.00;1.73;;;1.40;98.00;;;;;;4992110;28;20513;-66
2020/12/26 08:00:03;;;;;;;22.43;2.27;;;1.30;98.00;;;;;;4989953;28;20470;-66
2020/12/26 08:02:29;;;;;;;1.83;1.43;;;1.20;98.00;;;;;;4992028;28;20463;-66
2020/12/26 08:04:56;;;;;;;1.10;1.00;;;1.10;98.00;;;;;;4989761;28;20469;-65
2020/12/26 08:07:22;;;;;;;2.07;1.70;;;1.00;98.00;;;;;;4991850;28;20477;-65
2020/12/26 08:09:50;;;;;;;1.73;1.63;;;1.20;98.00;;;;;;4989372;28;20491;-65
2020/12/26 08:12:17;;;;;;;1.10;1.00;;;1.20;98.00;;;;;;4991615;28;20493;-65
2020/12/26 08:14:45;;;;;;;1.87;1.53;;;1.10;98.00;;;;;;4989665;28;20464;-65
2020/12/26 08:17:12;;;;;;;1.40;1.27;;;1.10;98.00;;;;;;4991814;28;20473;-65
2020/12/26 08:19:38;;;;;;;1.73;1.47;;;0.90;98.00;;;;;;4989573;28;20470;-65
2020/12/26 08:22:05;;;;;;;1.70;1.67;;;0.80;98.00;;;;;;4991804;28;20582;-67
2020/12/26 08:24:31;;;;;;;1.20;1.10;;;0.80;98.00;;;;;;4989347;28;20490;-65
2020/12/26 08:26:58;;;;;;;1.20;1.20;;;1.00;98.00;;;;;;4991470;28;20464;-66
2020/12/26 08:29:27;;;;;;;1.30;1.30;;;1.00;98.00;;;;;;4989334;28;20497;-66
2020/12/26 08:32:00;;;;;;;1.10;1.00;;;1.30;98.00;;;;;;4991499;28;20459;-66
2020/12/26 08:34:38;;;;;;;2.23;1.67;;;1.40;98.00;;;;;;4989460;28;20458;-66
2020/12/26 08:37:12;;;;;;;1.33;1.17;;;1.50;98.00;;;;;;4991555;28;20459;-67
2020/12/26 08:39:40;;;;;;;1.30;1.10;;;1.60;98.00;;;;;;4989463;28;20462;-66
2020/12/26 08:42:13;;;;;;;1.10;1.00;;;1.90;98.00;;;;;;4991636;28;20897;-66
2020/12/26 08:44:39;;;;;;;1.50;1.40;;;1.80;98.00;;;;;;4989384;28;20467;-66
2020/12/26 08:47:07;;;;;;;1.17;1.00;;;1.80;98.00;;;;;;4991323;28;20455;-66
2020/12/26 08:49:35;;;;;;;1.23;1.20;;;1.70;98.00;;;;;;4988910;28;20501;-66
2020/12/26 08:52:02;;;;;;;1.40;1.27;;;1.60;98.00;;;;;;4994640;28;20477;-67
2020/12/26 08:54:29;;;;;;;1.20;1.10;;;1.40;98.00;;;;;;4993152;28;20557;-67
2020/12/26 08:56:55;;;;;;;1.33;1.20;;;1.50;98.00;;;;;;4994828;28;20466;-66
2020/12/26 08:59:28;;;;;;;1.20;1.10;;;1.40;98.00;;;;;;4992761;28;20864;-67
2020/12/26 09:01:55;;;;;;;1.30;1.20;;;1.40;98.00;;;;;;4993834;28;20569;-65
2020/12/26 09:04:22;;;;;;;1.17;1.10;;;1.60;98.00;;;;;;4991353;28;20462;-67
2020/12/26 09:06:49;;;;;;;1.70;1.30;;;1.70;98.00;;;;;;4994913;28;20450;-65
2020/12/26 09:09:17;;;;;;;1.17;1.00;;;1.70;98.00;;;;;;4992488;28;20489;-66
2020/12/26 09:11:44;;;;;;;1.10;0.90;;;1.70;98.00;;;;;;4994650;28;20467;-65
2020/12/26 09:14:21;;;;;;;2.10;1.90;;;1.90;98.00;;;;;;4992626;28;20969;-68
2020/12/26 09:16:55;;;;;;;1.23;1.13;;;2.10;98.00;;;;;;4993531;28;20467;-66
2020/12/26 09:19:24;;;;;;;1.63;1.50;;;2.30;98.00;;;;;;4991303;28;20455;-68
2020/12/26 09:21:50;;;;;;;1.10;1.03;;;2.50;98.00;;;;;;4993876;28;20902;-67
2020/12/26 09:24:18;;;;;;;1.67;1.07;;;2.50;98.00;;;;;;4991785;28;20978;-66
2020/12/26 09:26:45;;;;;;;1.83;1.30;;;2.50;98.00;;;;;;4993449;28;20462;-66
2020/12/26 09:29:21;;;;;;;1.20;1.17;;;2.60;98.00;;;;;;4991346;28;20499;-65
2020/12/26 09:31:47;;;;;;;3.73;2.30;;;2.70;98.00;;;;;;4993681;28;20459;-66
2020/12/26 09:34:16;;;;;;;2.07;1.30;;;2.80;98.00;;;;;;4991629;28;20467;-67
2020/12/26 09:36:44;;;;;;;1.20;1.10;;;2.80;98.00;;;;;;4993250;28;20463;-66
2020/12/26 09:39:11;;;;;;;1.20;1.00;;;2.80;98.00;;;;;;4991321;28;21140;-67
2020/12/26 09:41:43;;;;;;;1.30;1.30;;;2.90;98.00;;;;;;4993540;28;20494;-67
2020/12/26 09:44:10;;;;;;;1.40;1.20;;;3.00;98.00;;;;;;4991506;28;20464;-65
2020/12/26 09:46:36;;;;;;;1.40;1.37;;;3.10;98.00;;;;;;4993003;28;20464;-66
2020/12/26 09:49:07;;;;;;;2.50;1.27;;;3.10;98.00;;;;;;4991044;28;20856;-67
2020/12/26 09:51:40;;;;;;;1.60;1.43;;;2.90;98.00;;;;;;4993180;28;20570;-67
2020/12/26 09:54:16;;;;;;;1.57;1.20;;;2.90;98.00;;;;;;4991241;28;20456;-68
2020/12/26 09:56:43;;;;;;;2.17;1.67;;;3.00;98.00;;;;;;4992089;28;20776;-67
2020/12/26 09:59:10;;;;;;;2.47;1.20;;;3.00;98.00;;;;;;4991050;28;20510;-65
2020/12/26 10:01:36;;;;;;;2.17;1.63;;;3.00;98.00;;;;;;4992302;28;20486;-66
2020/12/26 10:04:03;;;;;;;1.83;1.27;;;3.10;98.00;;;;;;4991084;28;20468;-65
2020/12/26 10:06:29;;;;;;;1.20;1.00;;;3.20;98.00;;;;;;4992930;28;20467;-66
2020/12/26 10:08:56;;;;;;;1.87;1.60;;;3.40;98.00;;;;;;4991879;28;20494;-66
2020/12/26 10:11:23;;;;;;;2.37;2.00;;;3.60;98.00;;;;;;4993190;28;20525;-67
2020/12/26 10:13:54;;;;;;;1.20;1.00;;;3.70;98.00;;;;;;4993190;28;21024;-66
2020/12/26 10:16:20;;;;;;;1.20;1.10;;;3.80;98.00;;;;;;4992025;28;20570;-66
2020/12/26 10:18:47;;;;;;;1.30;1.10;;;3.90;98.00;;;;;;4993030;28;20475;-67
2020/12/26 10:21:17;;;;;;;1.20;1.00;;;3.90;98.00;;;;;;4990621;28;20474;-66
2020/12/26 10:23:45;;;;;;;1.30;1.10;;;3.90;98.00;;;;;;4992849;28;20880;-66
2020/12/26 10:26:11;;;;;;;1.20;1.20;;;3.70;98.00;;;;;;4988971;28;20663;-66
2020/12/26 10:28:43;;;;;;;3.90;1.50;;;3.70;98.00;;;;;;4992661;28;20514;-66
2020/12/26 10:31:10;;;;;;;1.47;1.17;;;3.70;98.00;;;;;;4990617;28;20965;-66
2020/12/26 10:33:39;;;;;;;1.30;1.27;;;3.80;98.00;;;;;;4992468;28;20551;-66
2020/12/26 10:36:06;;;;;;;1.60;1.40;;;3.90;98.00;;;;;;4990238;28;20464;-65
2020/12/26 10:38:32;;;;;;;2.17;1.37;;;4.00;98.00;;;;;;4992547;28;20456;-65
2020/12/26 10:40:59;;;;;;;2.47;1.60;;;4.10;98.00;;;;;;4990664;28;20912;-66
2020/12/26 10:43:25;;;;;;;1.40;1.20;;;4.10;98.00;;;;;;4991192;28;20934;-67
2020/12/26 10:45:53;;;;;;;1.20;1.00;;;4.00;98.00;;;;;;4972946;28;20864;-67
2020/12/26 10:48:19;;;;;;;1.20;0.90;;;4.20;98.00;;;;;;4992268;28;20464;-65
2020/12/26 10:50:46;;;;;;;2.23;1.40;;;4.20;98.00;;;;;;4989977;28;20484;-65
2020/12/26 10:53:12;;;;;;;1.20;1.00;;;4.30;98.00;;;;;;4992166;28;20523;-65
2020/12/26 10:55:39;;;;;;;1.30;1.30;;;4.30;98.00;;;;;;4989691;28;20496;-65
2020/12/26 10:58:05;;;;;;;1.23;1.10;;;4.10;98.00;;;;;;4992127;28;20463;-66
2020/12/26 11:00:31;;;;;;;1.20;1.00;;;3.80;98.00;;;;;;4990050;28;20467;-66
2020/12/26 11:03:01;;;;;;;1.30;1.30;;;3.70;98.00;;;;;;4992103;28;20460;-65
2020/12/26 11:05:27;;;;;;;1.20;1.00;;;3.70;98.00;;;;;;4989378;28;20468;-66
2020/12/26 11:07:53;;;;;;;1.50;1.40;;;3.60;98.00;;;;;;4991585;28;20483;-66
2020/12/26 11:10:20;;;;;;;1.20;1.00;;;3.50;98.00;;;;;;4989322;28;20982;-67
2020/12/26 11:12:47;;;;;;;2.07;1.33;;;3.60;98.00;;;;;;4991398;28;20535;-66
2020/12/26 11:15:13;;;;;;;1.30;1.20;;;3.70;98.00;;;;;;4989947;28;20518;-65
2020/12/26 11:17:40;;;;;;;1.20;1.00;;;3.70;98.00;;;;;;4992152;28;20475;-67
2020/12/26 11:20:09;;;;;;;1.30;1.23;;;3.80;98.00;;;;;;4989546;28;20479;-65
2020/12/26 11:22:35;;;;;;;1.20;1.10;;;3.80;98.00;;;;;;4991736;28;20821;-65
2020/12/26 11:25:02;;;;;;;1.20;0.90;;;3.80;98.00;;;;;;4988595;28;20457;-65
2020/12/26 11:27:28;;;;;;;1.20;1.00;;;3.80;98.00;;;;;;4991664;28;20465;-65
2020/12/26 11:29:56;;;;;;;2.23;1.50;;;3.90;98.00;;;;;;4989413;28;20511;-66
2020/12/26 11:32:23;;;;;;;1.23;1.10;;;3.90;98.00;;;;;;4991800;28;20973;-65
2020/12/26 11:34:49;;;;;;;1.40;1.23;;;3.90;98.00;;;;;;4989377;28;20465;-67
2020/12/26 11:37:17;;;;;;;1.40;1.20;;;3.90;98.00;;;;;;4991718;28;21021;-64
2020/12/26 11:39:43;;;;;;;1.40;1.10;;;3.90;98.00;;;;;;4989967;28;20542;-66
2020/12/26 11:42:10;;;;;;;1.30;1.10;;;4.00;98.00;;;;;;4991663;28;20464;-64
2020/12/26 11:44:36;;;;;;;2.53;2.10;;;4.00;98.00;;;;;;4989864;28;20464;-67
2020/12/26 11:47:03;;;;;;;1.20;1.00;;;4.00;98.00;;;;;;4991483;28;20467;-66
2020/12/26 11:49:30;;;;;;;1.20;0.97;;;4.10;98.00;;;;;;4988956;28;20496;-66
2020/12/26 11:51:56;;;;;;;1.87;1.43;;;4.10;98.00;;;;;;4991625;28;20456;-66
2020/12/26 11:54:24;;;;;;;1.20;0.90;;;4.30;98.00;;;;;;4989559;28;20487;-65
2020/12/26 11:56:51;;;;;;;1.67;1.23;;;4.40;98.00;;;;;;4991263;28;20461;-65
2020/12/26 11:59:18;;;;;;;3.10;1.33;;;4.40;98.00;;;;;;4989645;28;20456;-65
2020/12/26 12:01:45;;;;;;;1.20;0.97;;;4.40;98.00;;;;;;4991728;28;20468;-64
2020/12/26 12:04:11;;;;;;;1.20;1.00;;;4.50;98.00;;;;;;4989495;28;20463;-66
2020/12/26 12:06:38;;;;;;;1.77;1.50;;;4.50;98.00;;;;;;4991194;28;20460;-66
2020/12/26 12:09:05;;;;;;;1.20;1.00;;;4.60;98.00;;;;;;4990941;28;20600;-65
2020/12/26 12:11:33;;;;;;;1.37;1.20;;;4.70;98.00;;;;;;4990027;28;20468;-65
2020/12/26 12:13:59;;;;;;;1.20;0.90;;;4.70;98.00;;;;;;4991342;28;20463;-65
2020/12/26 12:16:26;;;;;;;1.30;1.17;;;4.60;98.00;;;;;;4987820;28;20464;-65
2020/12/26 12:18:52;;;;;;;1.20;1.03;;;4.60;98.00;;;;;;4991146;28;20526;-66
2020/12/26 12:21:19;;;;;;;1.67;1.23;;;4.70;98.00;;;;;;4989197;28;20460;-65
2020/12/26 12:23:45;;;;;;;1.20;0.97;;;4.80;98.00;;;;;;4990945;28;20986;-64
2020/12/26 12:26:20;;;;;;;1.20;1.00;;;4.90;98.00;;;;;;4991273;28;20452;-65
2020/12/26 12:28:47;;;;;;;1.20;0.90;;;5.00;98.00;;;;;;4994907;28;20462;-67
2020/12/26 12:31:14;;;;;;;1.60;1.40;;;4.90;98.00;;;;;;4993241;28;20460;-66
2020/12/26 12:33:40;;;;;;;1.20;1.00;;;4.80;98.00;;;;;;4995047;28;20456;-65
2020/12/26 12:36:07;;;;;;;1.20;1.10;;;4.70;98.00;;;;;;4992276;28;20464;-65
2020/12/26 12:38:33;;;;;;;1.20;0.90;;;4.70;98.00;;;;;;4995064;28;20926;-67
2020/12/26 12:41:00;;;;;;;1.20;0.97;;;4.70;98.00;;;;;;4992753;28;20467;-67
2020/12/26 12:43:27;;;;;;;1.63;1.50;;;4.70;98.00;;;;;;4994830;28;20460;-65
2020/12/26 12:45:54;;;;;;;1.20;1.00;;;4.90;98.00;;;;;;4992559;28;20951;-64
2020/12/26 12:48:20;;;;;;;1.30;1.20;;;5.10;98.00;;;;;;4994676;28;20476;-65
2020/12/26 12:50:47;;;;;;;1.37;1.00;;;5.10;98.00;;;;;;4992049;28;21021;-66
2020/12/26 12:53:14;;;;;;;1.20;1.00;;;5.00;98.00;;;;;;4994856;28;20579;-68
2020/12/26 12:55:40;;;;;;;1.30;1.10;;;5.00;98.00;;;;;;4992639;28;20464;-67
2020/12/26 12:58:07;;;;;;;1.40;1.30;;;4.90;98.00;;;;;;4994816;28;20460;-66
2020/12/26 13:00:33;;;;;;;1.50;1.47;;;4.80;98.00;;;;;;4992586;28;20951;-66
2020/12/26 13:03:01;;;;;;;2.03;1.57;;;4.70;98.00;;;;;;4994654;28;20464;-65